createdAt,value
2019-04-06T00:01:14.871Z,48.63
2019-04-06T00:03:43.585Z,52.15
2019-04-06T00:06:12.317Z,48.95
2019-04-06T00:08:41.066Z,50.95
2019-04-06T00:11:09.839Z,47.50
2019-04-06T00:13:38.540Z,49.83
2019-04-06T00:16:07.183Z,49.25
2019-04-06T00:18:35.948Z,52.08
2019-04-06T00:21:05.732Z,50.95
2019-04-06T00:23:34.607Z,51.55
2019-04-06T00:26:03.466Z,50.58
2019-04-06T00:28:32.130Z,46.98
2019-04-06T00:31:31.515Z,54.88
2019-04-06T00:34:00.241Z,57.25
2019-04-06T00:36:28.979Z,54.10
2019-04-06T00:38:59.333Z,52.27
2019-04-06T00:41:28.081Z,51.68
2019-04-06T00:43:56.886Z,52.20
2019-04-06T00:46:28.351Z,44.70
2019-04-06T00:48:57.057Z,57.67
2019-04-06T00:51:25.779Z,54.30
2019-04-06T00:53:54.569Z,51.00
2019-04-06T00:56:23.241Z,53.23
2019-04-06T00:58:51.871Z,47.83
2019-04-06T01:01:20.623Z,49.45
2019-04-06T01:03:49.339Z,48.48
2019-04-06T01:06:17.993Z,48.60
2019-04-06T01:08:46.699Z,52.00
2019-04-06T01:11:15.545Z,46.33
2019-04-06T01:13:44.260Z,43.75
2019-04-06T01:16:13.023Z,48.05
2019-04-06T01:18:41.668Z,48.70
2019-04-06T01:21:10.396Z,51.75
2019-04-06T01:23:39.170Z,50.17
2019-04-06T01:26:08.002Z,49.83
2019-04-06T01:28:36.648Z,51.23
2019-04-06T01:31:05.236Z,48.35
2019-04-06T01:33:33.888Z,50.15
2019-04-06T01:36:02.580Z,50.20
2019-04-06T01:38:32.278Z,53.28
2019-04-06T01:41:00.908Z,49.65
2019-04-06T01:43:29.642Z,51.60
2019-04-06T01:45:58.283Z,47.23
2019-04-06T01:48:27.025Z,53.05
2019-04-06T01:50:55.695Z,45.45
2019-04-06T01:53:24.430Z,45.73
2019-04-06T01:55:53.198Z,46.92
2019-04-06T01:58:21.881Z,45.90
2019-04-06T02:01:08.186Z,44.93
2019-04-06T02:03:36.920Z,48.28
2019-04-06T02:06:05.590Z,50.25
2019-04-06T02:08:34.253Z,49.65
2019-04-06T02:11:03.022Z,44.95
2019-04-06T02:13:31.719Z,46.48
2019-04-06T02:16:00.359Z,47.10
2019-04-06T02:18:28.937Z,48.78
2019-04-06T02:20:57.495Z,40.43
2019-04-06T02:23:26.079Z,39.42
2019-04-06T02:25:54.732Z,45.73
2019-04-06T02:28:23.509Z,42.33
2019-04-06T02:31:06.626Z,43.87
2019-04-06T02:33:54.394Z,41.63
2019-04-06T02:36:37.570Z,38.95
2019-04-06T02:39:21.943Z,36.25
2019-04-06T02:41:56.644Z,39.38
2019-04-06T02:44:25.334Z,40.73
2019-04-06T02:46:54.037Z,46.28
2019-04-06T02:49:22.772Z,40.98
2019-04-06T02:51:52.336Z,38.92
2019-04-06T02:54:21.063Z,41.48
2019-04-06T02:56:49.614Z,40.60
2019-04-06T02:59:18.237Z,37.13
2019-04-06T03:01:46.875Z,36.98
2019-04-06T03:04:15.516Z,35.75
2019-04-06T03:06:44.383Z,38.53
2019-04-06T03:09:13.134Z,39.85
2019-04-06T03:11:41.824Z,40.10
2019-04-06T03:14:10.840Z,34.92
2019-04-06T03:16:39.576Z,40.83
2019-04-06T03:19:08.263Z,40.90
2019-04-06T03:21:36.992Z,40.45
2019-04-06T03:24:05.632Z,39.73
2019-04-06T03:26:34.269Z,36.30
2019-04-06T03:29:02.881Z,40.10
2019-04-06T03:31:31.546Z,42.03
2019-04-06T03:34:00.327Z,35.13
2019-04-06T03:36:29.043Z,36.90
2019-04-06T03:38:57.762Z,39.15
2019-04-06T03:41:26.397Z,40.28
2019-04-06T03:43:55.037Z,42.35
2019-04-06T03:46:23.667Z,41.33
2019-04-06T03:48:53.155Z,42.95
2019-04-06T03:51:21.687Z,38.00
2019-04-06T03:53:50.409Z,40.75
2019-04-06T03:56:18.950Z,42.35
2019-04-06T03:58:47.588Z,43.42
2019-04-06T04:01:16.254Z,40.17
2019-04-06T04:03:44.804Z,45.50
2019-04-06T04:06:13.407Z,45.85
2019-04-06T04:08:41.974Z,43.98
2019-04-06T04:11:10.579Z,42.17
2019-04-06T04:13:39.123Z,45.28
2019-04-06T04:16:07.803Z,43.52
2019-04-06T04:18:36.348Z,44.45
2019-04-06T04:21:05.147Z,40.15
2019-04-06T04:23:33.768Z,42.05
2019-04-06T04:26:02.438Z,45.00
2019-04-06T04:28:31.026Z,44.20
2019-04-06T04:30:59.740Z,44.98
2019-04-06T04:33:28.360Z,45.95
2019-04-06T04:35:56.985Z,43.63
2019-04-06T04:38:25.531Z,50.17
2019-04-06T04:40:54.534Z,47.78
2019-04-06T04:43:23.256Z,53.30
2019-04-06T04:45:51.802Z,48.38
2019-04-06T04:48:21.283Z,48.98
2019-04-06T04:50:50.056Z,44.60
2019-04-06T04:53:18.968Z,47.13
2019-04-06T04:55:47.773Z,46.92
2019-04-06T04:58:16.391Z,50.03
2019-04-06T05:00:44.994Z,43.70
2019-04-06T05:03:13.631Z,48.47
2019-04-06T05:05:42.171Z,48.15
2019-04-06T05:08:10.812Z,46.40
2019-04-06T05:10:39.500Z,45.83
2019-04-06T05:13:08.116Z,40.43
2019-04-06T05:15:50.032Z,51.23
2019-04-06T05:18:18.682Z,47.27
2019-04-06T05:20:47.369Z,45.20
2019-04-06T05:23:16.014Z,50.95
2019-04-06T05:25:44.610Z,49.50
2019-04-06T05:28:13.335Z,47.00
2019-04-06T05:30:41.970Z,46.50
2019-04-06T05:33:10.598Z,47.98
2019-04-06T05:35:39.134Z,49.90
2019-04-06T05:38:07.684Z,50.98
2019-04-06T05:40:36.386Z,51.50
2019-04-06T05:43:04.952Z,53.50
2019-04-06T05:45:33.625Z,53.47
2019-04-06T05:48:02.261Z,58.73
2019-04-06T05:50:31.034Z,56.65
2019-04-06T05:52:59.648Z,54.23
2019-04-06T05:55:28.383Z,55.08
2019-04-06T05:58:03.726Z,59.98
2019-04-06T06:00:27.544Z,62.60
2019-04-06T06:02:56.220Z,60.75
2019-04-06T06:05:24.817Z,62.65
2019-04-06T06:07:53.495Z,58.90
2019-04-06T06:10:22.038Z,62.88
2019-04-06T06:12:50.804Z,61.55
2019-04-06T06:15:19.509Z,62.95
2019-04-06T06:17:48.746Z,66.85
2019-04-06T06:20:17.492Z,65.85
2019-04-06T06:22:46.074Z,61.65
2019-04-06T06:25:15.143Z,62.73
2019-04-06T06:27:43.764Z,67.40
2019-04-06T06:30:12.460Z,67.75
2019-04-06T06:32:41.227Z,72.42
2019-04-06T06:35:09.804Z,70.22
2019-04-06T06:37:40.085Z,69.75
2019-04-06T06:40:08.823Z,67.35
2019-04-06T06:42:37.348Z,63.90
2019-04-06T06:45:06.608Z,66.22
2019-04-06T06:47:35.360Z,69.87
2019-04-06T06:50:04.667Z,65.17
2019-04-06T06:52:33.245Z,69.17
2019-04-06T06:55:01.919Z,70.17
2019-04-06T06:57:30.681Z,74.35
2019-04-06T06:59:59.455Z,74.42
2019-04-06T07:02:28.078Z,71.82
2019-04-06T07:04:56.717Z,67.15
2019-04-06T07:07:25.387Z,69.07
2019-04-06T07:10:04.207Z,68.60
2019-04-06T07:12:24.225Z,66.45
2019-04-06T07:14:52.785Z,70.17
2019-04-06T07:17:21.391Z,68.33
2019-04-06T07:19:49.963Z,68.12
2019-04-06T07:22:18.532Z,68.72
2019-04-06T07:24:47.085Z,73.25
2019-04-06T07:27:15.720Z,63.45
2019-04-06T07:29:44.511Z,70.62
2019-04-06T07:32:13.195Z,65.45
2019-04-06T07:34:41.818Z,75.35
2019-04-06T07:37:10.394Z,64.67
2019-04-06T07:39:39.119Z,62.43
2019-04-06T07:42:07.830Z,69.67
2019-04-06T07:44:37.970Z,66.75
2019-04-06T07:47:06.594Z,67.35
2019-04-06T07:49:35.237Z,68.15
2019-04-06T07:52:03.859Z,63.42
2019-04-06T07:54:32.792Z,63.68
2019-04-06T07:57:01.435Z,60.90
2019-04-06T07:59:30.197Z,67.65
2019-04-06T08:01:58.897Z,65.65
2019-04-06T08:04:27.543Z,63.20
2019-04-06T08:06:56.177Z,69.60
2019-04-06T08:09:24.815Z,65.08
2019-04-06T08:11:55.515Z,67.00
2019-04-06T08:14:24.063Z,61.15
2019-04-06T08:16:52.695Z,65.28
2019-04-06T08:19:22.559Z,63.78
2019-04-06T08:21:51.372Z,65.45
2019-04-06T08:24:20.064Z,62.08
2019-04-06T08:26:48.751Z,64.82
2019-04-06T08:29:17.424Z,62.58
2019-04-06T08:31:45.967Z,63.05
2019-04-06T08:34:14.668Z,65.00
2019-04-06T08:36:43.310Z,63.13
2019-04-06T08:39:11.982Z,63.00
2019-04-06T08:41:40.593Z,64.07
2019-04-06T08:44:10.333Z,62.27
2019-04-06T08:46:41.112Z,58.48
2019-04-06T08:49:09.769Z,59.45
2019-04-06T08:51:38.395Z,60.83
2019-04-06T08:54:07.051Z,58.75
2019-04-06T08:56:35.667Z,59.30
2019-04-06T08:59:11.181Z,65.40
2019-04-06T09:01:34.649Z,61.75
2019-04-06T09:04:03.339Z,60.83
2019-04-06T09:06:32.002Z,64.47
2019-04-06T09:09:00.916Z,60.15
2019-04-06T09:11:31.330Z,62.88
2019-04-06T09:13:59.912Z,63.35
2019-04-06T09:16:28.818Z,63.35
2019-04-06T09:18:57.547Z,55.73
2019-04-06T09:21:26.275Z,57.40
2019-04-06T09:23:55.135Z,61.20
2019-04-06T09:26:23.848Z,60.10
2019-04-06T09:28:52.662Z,62.80
2019-04-06T09:31:21.430Z,59.90
2019-04-06T09:33:50.058Z,57.67
2019-04-06T09:36:18.792Z,63.70
2019-04-06T09:38:47.430Z,53.90
2019-04-06T09:41:16.046Z,60.08
2019-04-06T09:43:44.681Z,55.75
2019-04-06T09:46:38.546Z,53.50
2019-04-06T09:49:16.918Z,59.70
2019-04-06T09:51:52.432Z,52.65
2019-04-06T09:54:46.198Z,56.85
2019-04-06T09:57:32.645Z,62.75
2019-04-06T10:00:23.150Z,54.23
2019-04-06T10:02:58.754Z,53.58
2019-04-06T10:05:53.238Z,54.38
2019-04-06T10:08:37.875Z,55.65
2019-04-06T10:11:20.133Z,52.35
2019-04-06T10:14:06.933Z,54.40
2019-04-06T10:17:00.613Z,54.18
2019-04-06T10:19:37.280Z,53.92
2019-04-06T10:22:31.687Z,51.73
2019-04-06T10:25:22.536Z,54.13
2019-04-06T10:28:07.608Z,55.63
2019-04-06T10:31:10.439Z,52.03
2019-04-06T10:34:01.099Z,52.03
2019-04-06T10:36:51.007Z,51.00
2019-04-06T10:39:38.756Z,59.35
2019-04-06T10:42:16.887Z,54.45
2019-04-06T10:45:07.613Z,52.53
2019-04-06T10:47:51.118Z,55.08
2019-04-06T10:50:28.384Z,55.25
2019-04-06T10:53:06.832Z,59.53
2019-04-06T10:56:06.416Z,58.68
2019-04-06T10:58:46.459Z,51.63
2019-04-06T11:01:30.553Z,52.58
2019-04-06T11:04:10.965Z,56.73
2019-04-06T11:07:14.035Z,55.20
2019-04-06T11:10:19.907Z,50.83
2019-04-06T11:13:06.024Z,53.83
2019-04-06T11:15:41.601Z,53.45
2019-04-06T11:18:27.441Z,53.30
2019-04-06T11:21:20.875Z,52.30
2019-04-06T11:24:03.068Z,49.40
2019-04-06T11:26:53.607Z,50.95
2019-04-06T11:29:46.566Z,49.63
2019-04-06T11:32:31.014Z,55.45
2019-04-06T11:35:16.054Z,51.53
2019-04-06T11:38:07.993Z,54.15
2019-04-06T11:40:47.626Z,51.55
2019-04-06T11:43:22.128Z,57.13
2019-04-06T11:46:24.960Z,52.58
2019-04-06T11:49:00.099Z,54.42
2019-04-06T11:51:48.737Z,46.10
2019-04-06T11:54:43.150Z,51.53
2019-04-06T11:57:43.034Z,50.58
2019-04-06T12:00:39.275Z,50.00
2019-04-06T12:03:25.580Z,49.08
2019-04-06T12:06:19.056Z,50.23
2019-04-06T12:09:12.903Z,52.60
2019-04-06T12:11:51.269Z,51.25
2019-04-06T12:14:29.952Z,51.33
2019-04-06T12:17:20.394Z,48.95
2019-04-06T12:19:57.357Z,49.15
2019-04-06T12:22:31.033Z,50.15
2019-04-06T12:25:22.495Z,50.38
2019-04-06T12:28:11.238Z,45.67
2019-04-06T12:30:52.256Z,46.35
2019-04-06T12:33:28.000Z,52.30
2019-04-06T12:36:30.907Z,53.65
2019-04-06T12:39:21.373Z,53.92
2019-04-06T12:42:08.260Z,47.45
2019-04-06T12:44:54.100Z,46.08
2019-04-06T12:47:47.653Z,47.48
2019-04-06T12:50:32.277Z,46.48
2019-04-06T12:53:25.500Z,47.90
2019-04-06T12:56:22.225Z,50.12
2019-04-06T12:59:09.910Z,44.53
2019-04-06T13:01:57.583Z,45.30
2019-04-06T13:04:51.510Z,37.50
2019-04-06T13:07:42.349Z,42.00
2019-04-06T13:10:36.997Z,44.88
2019-04-06T13:13:18.067Z,39.05
2019-04-06T13:16:15.370Z,38.42
2019-04-06T13:18:56.787Z,40.52
2019-04-06T13:21:44.988Z,35.33
2019-04-06T13:24:50.918Z,39.83
2019-04-06T13:27:53.593Z,38.63
2019-04-06T13:31:01.228Z,37.35
2019-04-06T13:33:39.434Z,35.98
2019-04-06T13:36:24.287Z,40.10
2019-04-06T13:39:13.899Z,39.45
2019-04-06T13:41:55.453Z,43.68
2019-04-06T13:44:36.971Z,39.33
2019-04-06T13:47:26.667Z,37.90
2019-04-06T13:50:10.989Z,34.43
2019-04-06T13:53:00.898Z,34.50
2019-04-06T13:55:47.555Z,33.23
2019-04-06T13:58:35.618Z,39.88
2019-04-06T14:01:35.660Z,33.92
2019-04-06T14:04:30.666Z,36.75
2019-04-06T14:07:06.177Z,37.20
2019-04-06T14:09:54.529Z,31.35
2019-04-06T14:12:32.221Z,30.27
2019-04-06T14:15:19.924Z,33.63
2019-04-06T14:18:25.755Z,34.65
2019-04-06T14:21:09.713Z,31.40
2019-04-06T14:23:58.814Z,29.60
2019-04-06T14:26:55.793Z,26.30
2019-04-06T14:29:42.558Z,25.92
2019-04-06T14:32:28.917Z,25.80
2019-04-06T14:35:25.779Z,22.27
2019-04-06T14:38:12.888Z,22.67
2019-04-06T14:40:59.170Z,23.10
2019-04-06T14:43:45.421Z,26.87
2019-04-06T14:46:39.080Z,35.28
2019-04-06T14:49:28.539Z,39.80
2019-04-06T14:52:05.399Z,45.23
2019-04-06T14:54:41.078Z,45.58
2019-04-06T14:57:27.175Z,38.80
2019-04-06T15:00:09.084Z,37.45
2019-04-06T15:03:09.254Z,35.25
2019-04-06T15:05:55.784Z,39.13
2019-04-06T15:08:42.538Z,37.85
2019-04-06T15:11:24.672Z,41.20
2019-04-06T15:14:13.753Z,39.80
2019-04-06T15:17:16.583Z,37.63
2019-04-06T15:20:13.487Z,44.93
2019-04-06T15:23:07.236Z,44.73
2019-04-06T15:25:48.305Z,46.00
2019-04-06T15:28:36.039Z,43.05
2019-04-06T15:31:19.743Z,39.60
2019-04-06T15:34:04.843Z,41.65
2019-04-06T15:36:39.887Z,41.05
2019-04-06T15:39:14.180Z,37.25
2019-04-06T15:42:04.872Z,37.60
2019-04-06T15:44:51.599Z,38.00
2019-04-06T15:47:48.178Z,36.48
2019-04-06T15:50:34.010Z,36.17
2019-04-06T15:53:16.351Z,37.25
2019-04-06T15:56:06.900Z,38.23
2019-04-06T15:58:49.557Z,39.13
2019-04-06T16:02:00.208Z,36.83
2019-04-06T16:04:44.868Z,38.25
2019-04-06T16:07:35.723Z,32.28
2019-04-06T16:10:27.745Z,36.33
2019-04-06T16:13:14.312Z,37.98
2019-04-06T16:16:00.579Z,37.80
2019-04-06T16:18:40.088Z,37.42
2019-04-06T16:21:30.651Z,36.20
2019-04-06T16:24:15.914Z,37.42
2019-04-06T16:26:54.426Z,39.55
2019-04-06T16:29:34.850Z,37.53
2019-04-06T16:32:13.507Z,39.05
2019-04-06T16:34:50.263Z,37.00
2019-04-06T16:37:35.018Z,34.73
2019-04-06T16:40:11.631Z,35.83
2019-04-06T16:43:02.253Z,35.55
2019-04-06T16:45:41.490Z,35.88
2019-04-06T16:48:20.165Z,34.75
2019-04-06T16:51:12.051Z,34.90
2019-04-06T16:53:53.369Z,37.15
2019-04-06T16:56:50.001Z,33.95
2019-04-06T16:59:36.388Z,37.58
2019-04-06T17:02:22.095Z,32.45
2019-04-06T17:05:01.343Z,35.35
2019-04-06T17:07:54.961Z,31.20
2019-04-06T17:10:31.125Z,35.85
2019-04-06T17:13:34.392Z,33.95
2019-04-06T17:16:22.470Z,32.85
2019-04-06T17:19:10.307Z,35.33
2019-04-06T17:21:50.132Z,33.35
2019-04-06T17:24:36.856Z,36.48
2019-04-06T17:27:25.679Z,36.93
2019-04-06T17:30:14.563Z,37.55
2019-04-06T17:33:06.722Z,34.30
2019-04-06T17:35:53.777Z,36.65
2019-04-06T17:38:41.653Z,34.65
2019-04-06T17:41:38.937Z,36.60
2019-04-06T17:44:25.523Z,35.65
2019-04-06T17:47:22.535Z,37.53
2019-04-06T17:50:00.386Z,37.45
2019-04-06T17:52:51.263Z,31.75
2019-04-06T17:55:47.400Z,34.73
2019-04-06T17:58:36.320Z,34.05
2019-04-06T18:01:36.524Z,35.20
2019-04-06T18:04:33.433Z,35.40
2019-04-06T18:07:28.095Z,36.38
2019-04-06T18:10:23.380Z,34.55
2019-04-06T18:13:23.434Z,35.75
2019-04-06T18:15:52.286Z,33.95
2019-04-06T18:18:21.208Z,36.50
2019-04-06T18:20:50.293Z,31.93
2019-04-06T18:23:20.037Z,38.35
2019-04-06T18:25:48.782Z,31.77
2019-04-06T18:28:17.528Z,39.78
2019-04-06T18:30:48.721Z,33.92
2019-04-06T18:33:21.212Z,36.73
2019-04-06T18:35:49.928Z,35.38
2019-04-06T18:38:43.582Z,37.20
2019-04-06T18:41:12.274Z,37.03
2019-04-06T18:43:40.906Z,37.45
2019-04-06T18:46:09.967Z,38.20
2019-04-06T18:48:38.619Z,37.70
2019-04-06T18:51:07.662Z,36.17
2019-04-06T18:53:36.972Z,32.23
2019-04-06T18:56:05.690Z,35.17
2019-04-06T18:58:34.381Z,35.48
2019-04-06T19:01:03.344Z,34.35
2019-04-06T19:03:32.291Z,34.40
2019-04-06T19:06:01.309Z,36.93
2019-04-06T19:08:29.982Z,37.42
2019-04-06T19:10:58.957Z,39.40
2019-04-06T19:13:28.934Z,36.80
2019-04-06T19:15:58.387Z,37.73
2019-04-06T19:18:27.183Z,36.42
2019-04-06T19:20:55.959Z,37.63
2019-04-06T19:23:25.189Z,37.58
2019-04-06T19:25:53.842Z,36.80
2019-04-06T19:28:22.528Z,37.17
2019-04-06T19:30:51.194Z,38.80
2019-04-06T19:33:25.159Z,40.12
2019-04-06T19:35:50.631Z,37.00
2019-04-06T19:38:19.355Z,36.75
2019-04-06T19:40:48.025Z,38.53
2019-04-06T19:43:17.945Z,38.38
2019-04-06T19:45:47.455Z,40.88
2019-04-06T19:48:16.273Z,39.18
2019-04-06T19:50:44.948Z,40.48
2019-04-06T19:53:13.612Z,42.53
2019-04-06T19:55:42.306Z,43.08
2019-04-06T19:58:11.355Z,38.50
2019-04-06T20:00:40.353Z,40.10
2019-04-06T20:03:08.992Z,37.25
2019-04-06T20:05:37.578Z,38.70
2019-04-06T20:08:06.235Z,38.95
2019-04-06T20:10:35.084Z,43.80
2019-04-06T20:13:03.924Z,41.40
2019-04-06T20:15:33.552Z,44.25
2019-04-06T20:18:02.699Z,44.80
2019-04-06T20:20:31.526Z,41.40
2019-04-06T20:23:00.505Z,41.85
2019-04-06T20:25:29.577Z,42.67
2019-04-06T20:27:58.735Z,40.15
2019-04-06T20:30:27.567Z,38.42
2019-04-06T20:32:56.170Z,45.20
2019-04-06T20:35:25.155Z,42.30
2019-04-06T20:37:54.403Z,42.60
2019-04-06T20:40:23.324Z,39.98
2019-04-06T20:42:51.954Z,39.80
2019-04-06T20:45:20.607Z,40.43
2019-04-06T20:47:49.701Z,40.58
2019-04-06T20:50:18.402Z,39.13
2019-04-06T20:52:47.008Z,37.28
2019-04-06T20:55:15.661Z,41.60
2019-04-06T20:57:44.374Z,44.83
2019-04-06T21:00:12.983Z,42.13
2019-04-06T21:02:42.964Z,41.92
2019-04-06T21:05:11.670Z,39.73
2019-04-06T21:07:40.486Z,40.35
2019-04-06T21:10:09.139Z,39.05
2019-04-06T21:12:37.773Z,40.43
2019-04-06T21:15:16.892Z,41.45
2019-04-06T21:17:37.069Z,41.58
2019-04-06T21:20:06.276Z,40.50
2019-04-06T21:22:35.472Z,40.15
2019-04-06T21:25:04.656Z,42.80
2019-04-06T21:27:33.215Z,39.10
2019-04-06T21:30:01.837Z,37.93
2019-04-06T21:32:31.723Z,40.12
2019-04-06T21:35:00.426Z,45.12
2019-04-06T21:37:29.125Z,38.30
2019-04-06T21:39:57.874Z,42.80
2019-04-06T21:42:26.561Z,47.80
2019-04-06T21:44:55.200Z,43.52
2019-04-06T21:47:24.072Z,44.75
2019-04-06T21:49:52.888Z,43.38
2019-04-06T21:52:21.526Z,46.25
2019-04-06T21:54:50.419Z,45.38
2019-04-06T21:57:19.775Z,39.08
2019-04-06T21:59:48.538Z,40.20
2019-04-06T22:02:17.175Z,49.15
2019-04-06T22:04:46.203Z,44.75
2019-04-06T22:07:15.402Z,46.90
2019-04-06T22:09:44.065Z,47.53
2019-04-06T22:12:12.744Z,51.75
2019-04-06T22:14:41.411Z,48.70
2019-04-06T22:17:10.103Z,43.85
2019-04-06T22:19:39.211Z,46.75
2019-04-06T22:22:07.829Z,44.13
2019-04-06T22:24:37.140Z,43.48
2019-04-06T22:27:06.394Z,45.17
2019-04-06T22:29:35.609Z,42.35
2019-04-06T22:32:04.234Z,44.15
2019-04-06T22:34:38.847Z,46.53
2019-04-06T22:37:03.592Z,44.83
2019-04-06T22:39:32.627Z,45.90
2019-04-06T22:42:02.035Z,47.70
2019-04-06T22:44:32.587Z,48.05
2019-04-06T22:47:01.218Z,44.98
2019-04-06T22:49:29.808Z,42.85
2019-04-06T22:51:58.466Z,42.83
2019-04-06T22:54:27.638Z,39.83
2019-04-06T22:56:56.288Z,43.85
2019-04-06T22:59:25.581Z,43.15
2019-04-06T23:01:54.979Z,43.80
2019-04-06T23:04:45.742Z,43.48
2019-04-06T23:07:07.594Z,40.88
2019-04-06T23:09:36.251Z,42.78
2019-04-06T23:12:05.278Z,46.75
2019-04-06T23:14:33.913Z,41.60
2019-04-06T23:17:03.636Z,43.35
2019-04-06T23:19:36.275Z,43.50
2019-04-06T23:22:04.913Z,46.15
2019-04-06T23:24:33.560Z,45.30
2019-04-06T23:27:02.397Z,39.98
2019-04-06T23:29:31.430Z,40.35
2019-04-06T23:32:00.017Z,38.85
2019-04-06T23:34:28.701Z,44.15
2019-04-06T23:36:57.265Z,43.28
2019-04-06T23:39:26.761Z,43.15
2019-04-06T23:41:55.567Z,41.88
2019-04-06T23:44:24.895Z,42.73
2019-04-06T23:46:54.278Z,40.58
2019-04-06T23:49:23.537Z,44.55
2019-04-06T23:51:52.174Z,41.05
2019-04-06T23:54:20.879Z,43.73
2019-04-06T23:56:49.671Z,40.85
2019-04-06T23:59:18.787Z,45.52
